Time,TemperatureF,DewpointF,PressureIn,WindDirection,WindDirectionDegrees,WindSpeedMPH,WindSpeedGustMPH,Humidity,HourlyPrecipIn,Conditions,Clouds,dailyrainin,SoftwareType,DateUTC
2013-04-05 00:02:00,53.0,52.0,29.85,SW,224,1.0,2.0,95,-99.99,,,-99.99,,2013-04-05 07:02:00,
2013-04-05 00:12:00,53.0,51.0,29.85,West,261,4.0,6.0,92,-99.99,,,-99.99,,2013-04-05 07:12:00,
2013-04-05 00:22:00,53.0,50.0,29.85,NW,307,3.0,5.0,89,-99.99,,,-99.99,,2013-04-05 07:22:00,
2013-04-05 00:32:00,53.0,50.0,29.85,WNW,302,1.0,2.0,90,-99.99,,,-99.99,,2013-04-05 07:32:00,
2013-04-05 00:42:00,52.0,51.0,29.85,NE,55,3.0,4.0,97,-99.99,,,-99.99,,2013-04-05 07:42:00,
2013-04-05 00:52:00,52.0,52.0,29.86,NE,48,3.0,5.0,99,-99.99,,,-99.99,,2013-04-05 07:52:00,
2013-04-05 01:02:00,52.0,52.0,29.86,NE,51,5.0,6.0,100,-99.99,,,-99.99,,2013-04-05 08:02:00,
2013-04-05 01:12:00,52.0,52.0,29.86,NNE,19,2.0,4.0,99,-99.99,,,-99.99,,2013-04-05 08:12:00,
2013-04-05 01:22:00,52.0,51.0,29.86,WNW,285,1.0,2.0,97,-99.99,,,-99.99,,2013-04-05 08:22:00,
2013-04-05 01:32:00,52.0,51.0,29.86,East,94,1.0,2.0,96,-99.99,,,-99.99,,2013-04-05 08:32:00,
2013-04-05 01:42:00,52.0,51.0,29.86,NNW,342,2.0,4.0,98,-99.99,,,-99.99,,2013-04-05 08:42:00,
2013-04-05 01:52:00,52.0,51.0,29.86,NNW,338,1.0,3.0,98,-99.99,,,-99.99,,2013-04-05 08:52:00,
2013-04-05 02:02:00,52.0,51.0,29.87,North,6,1.0,1.0,96,-99.99,,,-99.99,,2013-04-05 09:02:00,
2013-04-05 02:12:00,52.0,51.0,29.87,North,8,1.0,2.0,95,-99.99,,,-99.99,,2013-04-05 09:12:00,
2013-04-05 02:22:00,52.0,50.0,29.87,SSW,192,0.0,1.0,92,-99.99,,,-99.99,,2013-04-05 09:22:00,
2013-04-05 02:32:00,52.0,50.0,29.87,SSW,192,0.0,1.0,92,-99.99,,,-99.99,,2013-04-05 09:32:00,
2013-04-05 02:42:00,51.0,51.0,29.86,ENE,75,1.0,1.0,100,-99.99,,,-99.99,,2013-04-05 09:42:00,
2013-04-05 02:52:00,51.0,51.0,29.86,East,98,1.0,1.0,100,-99.99,,,-99.99,,2013-04-05 09:52:00,
2013-04-05 03:02:00,51.0,51.0,29.86,South,175,2.0,2.0,100,-99.99,,,-99.99,,2013-04-05 10:02:00,
2013-04-05 03:12:00,51.0,51.0,29.86,South,174,1.0,2.0,100,-99.99,,,-99.99,,2013-04-05 10:12:00,
2013-04-05 03:23:00,51.0,51.0,29.86,NNE,19,0.0,1.0,100,-99.99,,,-99.99,,2013-04-05 10:23:00,
2013-04-05 03:32:00,50.0,50.0,29.85,WNW,288,0.0,1.0,100,-99.99,,,-99.99,,2013-04-05 10:32:00,
2013-04-05 03:42:00,50.0,50.0,29.85,WNW,287,1.0,1.0,100,-99.99,,,-99.99,,2013-04-05 10:42:00,
2013-04-05 03:52:00,50.0,50.0,29.85,WNW,285,1.0,2.0,100,-99.99,,,-99.99,,2013-04-05 10:52:00,
2013-04-05 04:02:00,50.0,50.0,29.85,West,271,2.0,2.0,100,-99.99,,,-99.99,,2013-04-05 11:02:00,
2013-04-05 04:12:00,50.0,50.0,29.85,West,263,1.0,1.0,100,-99.99,,,-99.99,,2013-04-05 11:12:00,
2013-04-05 04:22:00,50.0,50.0,29.85,NNE,29,1.0,2.0,100,-99.99,,,-99.99,,2013-04-05 11:22:00,
2013-04-05 04:32:00,50.0,50.0,29.85,East,93,1.0,1.0,100,-99.99,,,-99.99,,2013-04-05 11:32:00,
2013-04-05 04:42:00,50.0,50.0,29.85,NE,45,2.0,2.0,100,-99.99,,,-99.99,,2013-04-05 11:42:00,
2013-04-05 04:52:00,50.0,50.0,29.85,NNE,32,2.0,3.0,100,-99.99,,,-99.99,,2013-04-05 11:52:00,
2013-04-05 05:02:00,50.0,50.0,29.86,North,354,1.0,2.0,100,-99.99,,,-99.99,,2013-04-05 12:02:00,
2013-04-05 05:12:00,50.0,50.0,29.86,NE,46,2.0,3.0,100,-99.99,,,-99.99,,2013-04-05 12:12:00,
2013-04-05 05:22:00,50.0,50.0,29.86,ENE,63,2.0,2.0,100,-99.99,,,-99.99,,2013-04-05 12:22:00,
2013-04-05 05:32:00,50.0,50.0,29.87,ESE,110,2.0,3.0,100,-99.99,,,-99.99,,2013-04-05 12:32:00,
2013-04-05 05:42:00,50.0,50.0,29.87,ESE,110,2.0,3.0,100,-99.99,,,-99.99,,2013-04-05 12:42:00,
2013-04-05 05:52:00,50.0,50.0,29.87,ESE,116,1.0,2.0,100,-99.99,,,-99.99,,2013-04-05 12:52:00,
2013-04-05 06:02:00,49.0,49.0,29.87,SE,127,0.0,1.0,100,-99.99,,,-99.99,,2013-04-05 13:02:00,
2013-04-05 06:12:00,50.0,50.0,29.87,SW,226,1.0,3.0,100,-99.99,,,-99.99,,2013-04-05 13:12:00,
2013-04-05 06:22:00,50.0,50.0,29.87,WSW,244,3.0,5.0,100,-99.99,,,-99.99,,2013-04-05 13:22:00,
2013-04-05 06:32:00,50.0,50.0,29.88,SSW,195,1.0,3.0,100,-99.99,,,-99.99,,2013-04-05 13:32:00,
2013-04-05 06:42:00,50.0,50.0,29.88,West,273,1.0,3.0,100,-99.99,,,-99.99,,2013-04-05 13:42:00,
2013-04-05 06:52:00,50.0,50.0,29.88,West,264,3.0,6.0,98,-99.99,,,-99.99,,2013-04-05 13:52:00,
2013-04-05 07:02:00,51.0,50.0,29.88,West,266,5.0,9.0,96,-99.99,,,-99.99,,2013-04-05 14:02:00,
2013-04-05 07:12:00,51.0,49.0,29.88,SW,231,3.0,6.0,93,-99.99,,,-99.99,,2013-04-05 14:12:00,
2013-04-05 07:22:00,51.0,50.0,29.89,WSW,252,3.0,9.0,95,-99.99,,,-99.99,,2013-04-05 14:22:00,
2013-04-05 07:36:00,51.0,49.0,29.89,SW,230,3.0,6.0,94,-99.99,,,-99.99,,2013-04-05 14:36:00,
2013-04-05 07:42:00,51.0,50.0,29.89,West,277,4.0,6.0,94,-99.99,,,-99.99,,2013-04-05 14:42:00,
2013-04-05 07:52:00,51.0,50.0,29.89,WSW,250,3.0,5.0,94,-99.99,,,-99.99,,2013-04-05 14:52:00,
2013-04-05 08:02:00,51.0,49.0,29.89,SW,215,3.0,4.0,94,-99.99,,,-99.99,,2013-04-05 15:02:00,
2013-04-05 08:12:00,51.0,50.0,29.89,SSW,204,2.0,3.0,98,-99.99,,,-99.99,,2013-04-05 15:12:00,
2013-04-05 08:22:00,52.0,50.0,29.90,SSE,167,3.0,4.0,95,-99.99,,,-99.99,,2013-04-05 15:22:00,
2013-04-05 08:33:00,52.0,49.0,29.90,SW,236,4.0,8.0,89,-99.99,,,-99.99,,2013-04-05 15:33:00,
2013-04-05 08:42:00,52.0,49.0,29.90,WSW,243,3.0,6.0,88,-99.99,,,-99.99,,2013-04-05 15:42:00,
2013-04-05 08:53:00,53.0,50.0,29.90,WSW,246,3.0,6.0,89,-99.99,,,-99.99,,2013-04-05 15:53:00,
2013-04-05 09:02:00,53.0,50.0,29.90,SW,235,5.0,9.0,90,-99.99,,,-99.99,,2013-04-05 16:02:00,
2013-04-05 09:13:00,53.0,50.0,29.90,WSW,255,5.0,9.0,91,-99.99,,,-99.99,,2013-04-05 16:13:00,
2013-04-05 09:23:00,53.0,50.0,29.91,WSW,242,4.0,7.0,91,-99.99,,,-99.99,,2013-04-05 16:23:00,
2013-04-05 09:32:00,53.0,51.0,29.90,West,276,5.0,9.0,92,-99.99,,,-99.99,,2013-04-05 16:32:00,
2013-04-05 09:42:00,54.0,51.0,29.91,WSW,253,5.0,8.0,91,-99.99,,,-99.99,,2013-04-05 16:42:00,
2013-04-05 09:52:00,54.0,51.0,29.91,WSW,241,4.0,7.0,90,-99.99,,,-99.99,,2013-04-05 16:52:00,
2013-04-05 10:02:00,55.0,51.0,29.91,SW,222,3.0,4.0,87,-99.99,,,-99.99,,2013-04-05 17:02:00,
2013-04-05 10:12:00,56.0,49.0,29.91,South,176,3.0,6.0,77,-99.99,,,-99.99,,2013-04-05 17:12:00,
2013-04-05 10:22:00,56.0,50.0,29.91,SW,217,4.0,8.0,80,-99.99,,,-99.99,,2013-04-05 17:22:00,
2013-04-05 10:32:00,56.0,52.0,29.92,WSW,258,6.0,12.0,88,-99.99,,,-99.99,,2013-04-05 17:32:00,
2013-04-05 10:45:00,55.0,52.0,29.92,West,272,9.0,15.0,90,-99.99,,,-99.99,,2013-04-05 17:45:00,
2013-04-05 10:52:00,55.0,53.0,29.93,WSW,258,9.0,17.0,92,-99.99,,,-99.99,,2013-04-05 17:52:00,
2013-04-05 11:02:00,55.0,53.0,29.93,West,261,8.0,13.0,92,-99.99,,,-99.99,,2013-04-05 18:02:00,
2013-04-05 11:12:00,55.0,53.0,29.93,West,272,6.0,12.0,91,-99.99,,,-99.99,,2013-04-05 18:12:00,
2013-04-05 11:22:00,55.0,53.0,29.93,West,268,9.0,13.0,90,-99.99,,,-99.99,,2013-04-05 18:22:00,
2013-04-05 11:32:00,56.0,54.0,29.93,West,280,9.0,15.0,91,-99.99,,,-99.99,,2013-04-05 18:32:00,
2013-04-05 11:42:00,56.0,53.0,29.93,West,278,9.0,13.0,89,-99.99,,,-99.99,,2013-04-05 18:42:00,
2013-04-05 11:52:00,55.0,53.0,29.93,West,273,10.0,15.0,91,-99.99,,,-99.99,,2013-04-05 18:52:00,
2013-04-05 12:02:00,55.0,53.0,29.94,West,266,8.0,14.0,92,-99.99,,,-99.99,,2013-04-05 19:02:00,
2013-04-05 12:13:00,56.0,54.0,29.94,WNW,285,9.0,18.0,92,-99.99,,,-99.99,,2013-04-05 19:13:00,
2013-04-05 12:22:00,56.0,53.0,29.94,WNW,285,10.0,16.0,90,-99.99,,,-99.99,,2013-04-05 19:22:00,
2013-04-05 12:32:00,57.0,53.0,29.94,WNW,287,11.0,18.0,85,-99.99,,,-99.99,,2013-04-05 19:32:00,
2013-04-05 12:42:00,58.0,52.0,29.94,WNW,291,10.0,18.0,81,-99.99,,,-99.99,,2013-04-05 19:42:00,
2013-04-05 12:52:00,58.0,51.0,29.94,WNW,292,10.0,17.0,78,-99.99,,,-99.99,,2013-04-05 19:52:00,
2013-04-05 13:02:00,58.0,51.0,29.93,WNW,285,11.0,18.0,76,-99.99,,,-99.99,,2013-04-05 20:02:00,
2013-04-05 13:11:00,58.0,50.0,29.93,WNW,292,10.0,16.0,74,-99.99,,,-99.99,,2013-04-05 20:11:00,
2013-04-05 13:22:00,58.0,50.0,29.93,WNW,291,10.0,18.0,75,-99.99,,,-99.99,,2013-04-05 20:22:00,
2013-04-05 13:31:00,58.0,53.0,29.93,WNW,285,9.0,15.0,83,-99.99,,,-99.99,,2013-04-05 20:31:00,
2013-04-05 13:42:00,58.0,53.0,29.93,WNW,285,9.0,15.0,83,-99.99,,,-99.99,,2013-04-05 20:42:00,
2013-04-05 13:52:00,57.0,50.0,29.93,WNW,286,12.0,21.0,76,-99.99,,,-99.99,,2013-04-05 20:52:00,
2013-04-05 14:02:00,56.0,53.0,29.94,WNW,283,11.0,19.0,86,-99.99,,,-99.99,,2013-04-05 21:02:00,
2013-04-05 14:12:00,57.0,52.0,29.94,WNW,288,7.0,16.0,84,-99.99,,,-99.99,,2013-04-05 21:12:00,
2013-04-05 14:23:00,58.0,51.0,29.94,WNW,297,8.0,17.0,77,-99.99,,,-99.99,,2013-04-05 21:23:00,
2013-04-05 14:33:00,58.0,49.0,29.93,WNW,287,11.0,16.0,72,-99.99,,,-99.99,,2013-04-05 21:33:00,
2013-04-05 14:42:00,57.0,50.0,29.94,WNW,283,11.0,16.0,78,-99.99,,,-99.99,,2013-04-05 21:42:00,
2013-04-05 14:53:00,57.0,53.0,29.95,WNW,290,12.0,21.0,88,-99.99,,,-99.99,,2013-04-05 21:53:00,
2013-04-05 15:02:00,56.0,52.0,29.94,WNW,287,7.0,18.0,86,-99.99,,,-99.99,,2013-04-05 22:02:00,
2013-04-05 15:13:00,57.0,50.0,29.94,WNW,299,8.0,15.0,78,-99.99,,,-99.99,,2013-04-05 22:13:00,
2013-04-05 15:22:00,57.0,49.0,29.94,WNW,291,7.0,14.0,75,-99.99,,,-99.99,,2013-04-05 22:22:00,
2013-04-05 15:32:00,57.0,48.0,29.94,West,271,5.0,11.0,72,-99.99,,,-99.99,,2013-04-05 22:32:00,
2013-04-05 15:42:00,57.0,48.0,29.94,WNW,287,8.0,13.0,73,-99.99,,,-99.99,,2013-04-05 22:42:00,
2013-04-05 15:52:00,57.0,48.0,29.94,WNW,289,6.0,10.0,73,-99.99,,,-99.99,,2013-04-05 22:52:00,
2013-04-05 16:02:00,57.0,48.0,29.94,WNW,289,6.0,10.0,73,-99.99,,,-99.99,,2013-04-05 23:02:00,
2013-04-05 16:12:00,57.0,48.0,29.94,West,278,8.0,12.0,71,-99.99,,,-99.99,,2013-04-05 23:12:00,
2013-04-05 16:22:00,57.0,48.0,29.94,WSW,256,5.0,11.0,72,-99.99,,,-99.99,,2013-04-05 23:22:00,
2013-04-05 16:32:00,56.0,50.0,29.94,WSW,256,3.0,6.0,82,-99.99,,,-99.99,,2013-04-05 23:32:00,
2013-04-05 16:42:00,55.0,52.0,29.94,West,280,6.0,9.0,90,-99.99,,,-99.99,,2013-04-05 23:42:00,
2013-04-05 16:52:00,55.0,53.0,29.95,West,277,3.0,4.0,94,-99.99,,,-99.99,,2013-04-05 23:52:00,
2013-04-05 17:02:00,54.0,52.0,29.95,West,266,4.0,6.0,93,-99.99,,,-99.99,,2013-04-06 00:02:00,
2013-04-05 17:12:00,54.0,52.0,29.94,WNW,294,4.0,6.0,92,-99.99,,,-99.99,,2013-04-06 00:12:00,
2013-04-05 17:22:00,54.0,52.0,29.94,West,278,3.0,4.0,94,-99.99,,,-99.99,,2013-04-06 00:22:00,
2013-04-05 17:32:00,54.0,52.0,29.94,WNW,302,3.0,6.0,94,-99.99,,,-99.99,,2013-04-06 00:32:00,
2013-04-05 17:42:00,54.0,52.0,29.94,WNW,302,3.0,6.0,94,-99.99,,,-99.99,,2013-04-06 00:42:00,
2013-04-05 17:52:00,54.0,52.0,29.93,WNW,303,5.0,10.0,93,-99.99,,,-99.99,,2013-04-06 00:52:00,
2013-04-05 18:02:00,54.0,52.0,29.93,WNW,300,5.0,11.0,93,-99.99,,,-99.99,,2013-04-06 01:02:00,
2013-04-05 18:12:00,54.0,52.0,29.93,WNW,298,7.0,11.0,93,-99.99,,,-99.99,,2013-04-06 01:12:00,
2013-04-05 18:22:00,54.0,52.0,29.93,NW,306,4.0,8.0,93,-99.99,,,-99.99,,2013-04-06 01:22:00,
2013-04-05 18:32:00,54.0,52.0,29.93,NW,320,4.0,10.0,94,-99.99,,,-99.99,,2013-04-06 01:32:00,
2013-04-05 18:42:00,53.0,51.0,29.93,WNW,299,6.0,14.0,93,-99.99,,,-99.99,,2013-04-06 01:42:00,
2013-04-05 18:52:00,53.0,51.0,29.93,WNW,293,7.0,11.0,92,-99.99,,,-99.99,,2013-04-06 01:52:00,
2013-04-05 19:02:00,53.0,51.0,29.92,WNW,298,6.0,10.0,92,-99.99,,,-99.99,,2013-04-06 02:02:00,
2013-04-05 19:12:00,52.0,50.0,29.92,WNW,300,7.0,14.0,92,-99.99,,,-99.99,,2013-04-06 02:12:00,
2013-04-05 19:22:00,52.0,50.0,29.92,WNW,297,7.0,11.0,92,-99.99,,,-99.99,,2013-04-06 02:22:00,
2013-04-05 19:32:00,52.0,50.0,29.91,WNW,299,6.0,10.0,92,-99.99,,,-99.99,,2013-04-06 02:32:00,
2013-04-05 19:42:00,52.0,50.0,29.91,WNW,298,7.0,11.0,91,-99.99,,,-99.99,,2013-04-06 02:42:00,
2013-04-05 19:52:00,52.0,49.0,29.91,WNW,299,7.0,10.0,90,-99.99,,,-99.99,,2013-04-06 02:52:00,
2013-04-05 20:02:00,52.0,49.0,29.90,NW,305,5.0,9.0,91,-99.99,,,-99.99,,2013-04-06 03:02:00,
2013-04-05 20:12:00,51.0,49.0,29.90,WNW,302,5.0,9.0,90,-99.99,,,-99.99,,2013-04-06 03:12:00,
2013-04-05 20:22:00,51.0,49.0,29.90,WNW,296,6.0,11.0,92,-99.99,,,-99.99,,2013-04-06 03:22:00,
2013-04-05 20:33:00,51.0,49.0,29.89,WNW,288,3.0,7.0,92,-99.99,,,-99.99,,2013-04-06 03:33:00,
2013-04-05 20:42:00,51.0,49.0,29.89,WNW,295,3.0,5.0,93,-99.99,,,-99.99,,2013-04-06 03:42:00,
2013-04-05 20:53:00,50.0,49.0,29.89,NW,311,2.0,3.0,94,-99.99,,,-99.99,,2013-04-06 03:53:00,
2013-04-05 21:03:00,51.0,49.0,29.89,WNW,285,2.0,4.0,95,-99.99,,,-99.99,,2013-04-06 04:03:00,
2013-04-05 21:13:00,50.0,49.0,29.89,NW,324,2.0,2.0,96,-99.99,,,-99.99,,2013-04-06 04:13:00,
2013-04-05 21:22:00,50.0,49.0,29.89,NW,319,2.0,3.0,96,-99.99,,,-99.99,,2013-04-06 04:22:00,
2013-04-05 21:32:00,50.0,49.0,29.89,NW,305,2.0,4.0,98,-99.99,,,-99.99,,2013-04-06 04:32:00,
2013-04-05 21:42:00,50.0,50.0,29.89,West,272,3.0,4.0,99,-99.99,,,-99.99,,2013-04-06 04:42:00,
2013-04-05 21:52:00,50.0,50.0,29.89,SW,229,2.0,2.0,100,-99.99,,,-99.99,,2013-04-06 04:52:00,
2013-04-05 22:02:00,50.0,50.0,29.90,SW,218,1.0,1.0,100,-99.99,,,-99.99,,2013-04-06 05:02:00,
2013-04-05 22:12:00,49.0,49.0,29.90,ESE,102,2.0,3.0,100,-99.99,,,-99.99,,2013-04-06 05:12:00,
2013-04-05 22:22:00,49.0,49.0,29.90,East,89,1.0,2.0,100,-99.99,,,-99.99,,2013-04-06 05:22:00,
2013-04-05 22:32:00,49.0,49.0,29.90,SE,126,1.0,2.0,100,-99.99,,,-99.99,,2013-04-06 05:32:00,
2013-04-05 22:42:00,49.0,49.0,29.90,ESE,107,1.0,1.0,100,-99.99,,,-99.99,,2013-04-06 05:42:00,
2013-04-05 22:51:00,49.0,49.0,29.90,SSW,194,1.0,1.0,100,-99.99,,,-99.99,,2013-04-06 05:51:00,
2013-04-05 23:02:00,49.0,49.0,29.90,West,262,1.0,1.0,100,-99.99,,,-99.99,,2013-04-06 06:02:00,
2013-04-05 23:12:00,49.0,49.0,29.90,NNW,334,1.0,1.0,100,-99.99,,,-99.99,,2013-04-06 06:12:00,
2013-04-05 23:22:00,49.0,49.0,29.89,ESE,115,2.0,3.0,100,-99.99,,,-99.99,,2013-04-06 06:22:00,
2013-04-05 23:32:00,49.0,49.0,29.89,ESE,116,1.0,1.0,100,-99.99,,,-99.99,,2013-04-06 06:32:00,
2013-04-05 23:42:00,49.0,49.0,29.89,NNW,337,1.0,1.0,100,-99.99,,,-99.99,,2013-04-06 06:42:00,
2013-04-05 23:52:00,49.0,49.0,29.88,NNE,25,1.0,1.0,100,-99.99,,,-99.99,,2013-04-06 06:52:00,